createdAt,value
2023-07-27T00:02:16.460Z,96955.53
2023-07-27T00:04:45.145Z,96950.28
2023-07-27T00:07:16.665Z,96948.50
2023-07-27T00:09:43.330Z,96938.50
2023-07-27T00:12:12.259Z,96938.91
2023-07-27T00:14:41.485Z,96937.72
2023-07-27T00:17:11.663Z,96932.16
2023-07-27T00:19:38.442Z,96938.78
2023-07-27T00:22:05.372Z,96935.50
2023-07-27T00:24:34.572Z,96933.22
2023-07-27T00:27:01.204Z,96930.19
2023-07-27T00:29:32.756Z,96929.09
2023-07-27T00:31:59.344Z,96926.78
2023-07-27T00:34:26.295Z,96928.41
2023-07-27T00:36:52.883Z,96924.69
2023-07-27T00:39:22.220Z,96922.41
2023-07-27T00:41:51.316Z,96919.19
2023-07-27T00:44:17.936Z,96914.66
2023-07-27T00:46:44.809Z,96913.81
2023-07-27T00:49:13.818Z,96910.25
2023-07-27T00:51:45.820Z,96924.63
2023-07-27T00:54:14.235Z,96914.44
2023-07-27T00:56:43.058Z,96910.19
2023-07-27T00:59:12.093Z,96898.53
2023-07-27T01:01:43.452Z,96908.44
2023-07-27T01:04:10.495Z,96913.81
2023-07-27T01:06:42.031Z,96908.16
2023-07-27T01:09:08.848Z,96908.72
2023-07-27T01:11:56.809Z,96917.34
2023-07-27T01:14:38.788Z,96906.00
2023-07-27T01:17:23.097Z,96912.97
2023-07-27T01:20:16.125Z,96906.69
2023-07-27T01:23:20.925Z,96901.25
2023-07-27T01:26:21.180Z,96900.56
2023-07-27T01:29:22.455Z,96898.91
2023-07-27T01:31:54.259Z,96895.97
2023-07-27T01:34:32.500Z,96895.00
2023-07-27T01:37:09.430Z,96891.50
2023-07-27T01:39:44.475Z,96879.31
2023-07-27T01:42:14.642Z,96870.81
2023-07-27T01:44:44.336Z,96877.78
2023-07-27T01:47:17.262Z,96885.31
2023-07-27T01:49:45.946Z,96874.69
2023-07-27T01:52:14.102Z,96873.38
2023-07-27T01:54:41.066Z,96866.41
2023-07-27T01:57:09.961Z,96863.88
2023-07-27T01:59:40.826Z,96864.66
2023-07-27T02:02:10.153Z,96853.00
2023-07-27T02:04:37.259Z,96850.06
2023-07-27T02:07:06.237Z,96857.94
2023-07-27T02:09:32.890Z,96858.81
2023-07-27T02:12:07.064Z,96839.91
2023-07-27T02:14:56.815Z,96838.78
2023-07-27T02:17:35.120Z,96830.97
2023-07-27T02:20:03.947Z,96843.38
2023-07-27T02:22:31.429Z,96849.81
2023-07-27T02:25:02.531Z,96838.38
2023-07-27T02:27:31.958Z,96837.59
2023-07-27T02:30:00.785Z,96834.03
2023-07-27T02:32:27.470Z,96826.50
2023-07-27T02:34:54.426Z,96822.25
2023-07-27T02:37:23.252Z,96832.28
2023-07-27T02:39:49.855Z,96836.16
2023-07-27T02:42:16.428Z,96831.41
2023-07-27T02:44:45.239Z,96829.31
2023-07-27T02:47:14.660Z,96820.09
2023-07-27T02:49:41.601Z,96820.28
2023-07-27T02:52:11.016Z,96827.16
2023-07-27T02:54:39.949Z,96822.69
2023-07-27T02:57:08.999Z,96822.59
2023-07-27T02:59:35.944Z,96821.84
2023-07-27T03:02:05.348Z,96821.84
2023-07-27T03:04:31.984Z,96819.56
2023-07-27T03:06:58.961Z,96823.38
2023-07-27T03:09:28.557Z,96823.69
2023-07-27T03:11:57.806Z,96810.63
2023-07-27T03:14:26.657Z,96813.25
2023-07-27T03:17:00.399Z,96820.09
2023-07-27T03:19:27.789Z,96810.44
2023-07-27T03:21:59.243Z,96804.09
2023-07-27T03:24:28.123Z,96804.41
2023-07-27T03:26:54.891Z,96815.22
2023-07-27T03:29:28.561Z,96807.38
2023-07-27T03:31:55.639Z,96808.56
2023-07-27T03:34:22.318Z,96803.88
2023-07-27T03:36:48.889Z,96805.41
2023-07-27T03:39:15.820Z,96805.06
2023-07-27T03:41:44.568Z,96807.03
2023-07-27T03:44:15.251Z,96803.56
2023-07-27T03:46:44.626Z,96803.88
2023-07-27T03:49:14.217Z,96800.81
2023-07-27T03:51:43.740Z,96803.44
2023-07-27T03:54:10.426Z,96798.97
2023-07-27T03:56:39.176Z,96796.16
2023-07-27T03:59:08.169Z,96799.19
2023-07-27T04:01:36.998Z,96792.22
2023-07-27T04:04:08.496Z,96797.13
2023-07-27T04:06:35.456Z,96794.41
2023-07-27T04:09:02.382Z,96796.25
2023-07-27T04:11:29.013Z,96792.34
2023-07-27T04:13:57.856Z,96790.28
2023-07-27T04:16:24.536Z,96794.84
2023-07-27T04:18:53.521Z,96799.66
2023-07-27T04:21:20.194Z,96799.50
2023-07-27T04:23:46.896Z,96792.88
2023-07-27T04:26:18.450Z,96798.22
2023-07-27T04:28:45.567Z,96797.03
2023-07-27T04:31:14.696Z,96802.34
2023-07-27T04:33:44.296Z,96804.31
2023-07-27T04:36:11.099Z,96805.81
2023-07-27T04:38:37.709Z,96802.56
2023-07-27T04:41:06.597Z,96809.63
2023-07-27T04:43:33.184Z,96801.16
2023-07-27T04:46:02.080Z,96800.72
2023-07-27T04:48:28.751Z,96790.47
2023-07-27T04:50:55.851Z,96808.00
2023-07-27T04:53:22.471Z,96803.31
2023-07-27T04:55:49.101Z,96806.34
2023-07-27T04:58:20.543Z,96798.28
2023-07-27T05:00:56.295Z,96798.72
2023-07-27T05:03:25.369Z,96810.47
2023-07-27T05:05:55.464Z,96795.84
2023-07-27T05:08:22.093Z,96801.72
2023-07-27T05:10:48.681Z,96794.13
2023-07-27T05:13:15.302Z,96799.88
2023-07-27T05:15:42.612Z,96797.63
2023-07-27T05:18:09.316Z,96793.56
2023-07-27T05:20:35.924Z,96789.47
2023-07-27T05:23:04.860Z,96788.59
2023-07-27T05:25:31.540Z,96794.88
2023-07-27T05:28:00.249Z,96789.63
2023-07-27T05:30:26.950Z,96776.94
2023-07-27T05:32:55.913Z,96779.19
2023-07-27T05:35:22.532Z,96783.09
2023-07-27T05:37:51.615Z,96782.97
2023-07-27T05:40:20.437Z,96784.72
2023-07-27T05:42:47.012Z,96783.53
2023-07-27T05:45:18.237Z,96787.19
2023-07-27T05:47:44.886Z,96786.63
2023-07-27T05:50:12.845Z,96796.41
2023-07-27T05:52:39.474Z,96792.03
2023-07-27T05:55:08.825Z,96794.38
2023-07-27T05:57:35.406Z,96793.19
2023-07-27T06:00:07.525Z,96790.50
2023-07-27T06:02:37.190Z,96785.22
2023-07-27T06:05:04.277Z,96773.31
2023-07-27T06:07:31.107Z,96774.63
2023-07-27T06:09:57.711Z,96786.56
2023-07-27T06:12:26.814Z,96790.53
2023-07-27T06:14:55.754Z,96785.94
2023-07-27T06:17:25.529Z,96783.66
2023-07-27T06:19:54.763Z,96785.66
2023-07-27T06:22:21.857Z,96780.75
2023-07-27T06:24:53.311Z,96792.97
2023-07-27T06:27:20.119Z,96791.34
2023-07-27T06:29:47.150Z,96781.13
2023-07-27T06:32:16.301Z,96782.31
2023-07-27T06:34:45.342Z,96793.25
2023-07-27T06:37:12.075Z,96786.69
2023-07-27T06:39:39.419Z,96782.94
2023-07-27T06:42:08.746Z,96784.44
2023-07-27T06:44:37.833Z,96780.53
2023-07-27T06:47:07.459Z,96785.34
2023-07-27T06:49:36.581Z,96778.44
2023-07-27T06:52:10.393Z,96780.88
2023-07-27T06:54:37.948Z,96774.88
2023-07-27T06:57:11.600Z,96771.09
2023-07-27T06:59:38.418Z,96778.31
2023-07-27T07:02:07.866Z,96782.72
2023-07-27T07:04:40.473Z,96780.72
2023-07-27T07:07:13.017Z,96787.84
2023-07-27T07:09:42.004Z,96783.59
2023-07-27T07:12:09.327Z,96784.38
2023-07-27T07:14:35.959Z,96786.72
2023-07-27T07:17:03.531Z,96781.97
2023-07-27T07:19:32.341Z,96786.56
2023-07-27T07:22:01.759Z,96779.88
2023-07-27T07:24:28.490Z,96777.09
2023-07-27T07:26:56.953Z,96774.41
2023-07-27T07:29:26.303Z,96783.38
2023-07-27T07:31:55.917Z,96787.41
2023-07-27T07:34:24.810Z,96782.75
2023-07-27T07:36:51.467Z,96777.84
2023-07-27T07:39:18.309Z,96774.38
2023-07-27T07:41:45.356Z,96770.50
2023-07-27T07:44:11.983Z,96772.81
2023-07-27T07:46:43.546Z,96772.66
2023-07-27T07:49:12.928Z,96769.28
2023-07-27T07:51:39.485Z,96765.88
2023-07-27T07:54:10.981Z,96759.06
2023-07-27T07:56:40.860Z,96765.00
2023-07-27T07:59:07.908Z,96757.63
2023-07-27T08:01:34.996Z,96756.03
2023-07-27T08:04:01.795Z,96746.06
2023-07-27T08:06:28.372Z,96754.63
2023-07-27T08:08:57.033Z,96746.84
2023-07-27T08:11:23.657Z,96750.53
2023-07-27T08:13:56.423Z,96741.72
2023-07-27T08:16:26.168Z,96746.56
2023-07-27T08:18:52.789Z,96738.38
2023-07-27T08:21:19.414Z,96727.84
2023-07-27T08:23:48.495Z,96726.38
2023-07-27T08:26:17.588Z,96723.69
2023-07-27T08:28:47.077Z,96725.47
2023-07-27T08:31:16.280Z,96717.88
2023-07-27T08:33:44.933Z,96717.34
2023-07-27T08:36:14.490Z,96716.13
2023-07-27T08:38:41.232Z,96708.47
2023-07-27T08:41:07.790Z,96701.13
2023-07-27T08:43:34.529Z,96702.97
2023-07-27T08:46:01.972Z,96710.41
2023-07-27T08:48:31.840Z,96713.22
2023-07-27T08:50:59.609Z,96710.63
2023-07-27T08:53:31.283Z,96706.00
2023-07-27T08:55:59.637Z,96705.50
2023-07-27T08:58:26.925Z,96702.81
2023-07-27T09:00:53.617Z,96699.84
2023-07-27T09:03:22.705Z,96704.63
2023-07-27T09:06:04.970Z,96701.75
2023-07-27T09:08:31.729Z,96701.28
2023-07-27T09:11:09.734Z,96692.31
2023-07-27T09:13:40.331Z,96690.13
2023-07-27T09:16:07.992Z,96687.69
2023-07-27T09:18:39.421Z,96683.97
2023-07-27T09:21:12.083Z,96677.16
2023-07-27T09:23:39.693Z,96668.53
2023-07-27T09:26:07.310Z,96670.38
2023-07-27T09:28:39.409Z,96674.09
2023-07-27T09:31:06.067Z,96665.81
2023-07-27T09:33:35.008Z,96676.66
2023-07-27T09:36:03.640Z,96681.78
2023-07-27T09:38:30.482Z,96671.75
2023-07-27T09:40:57.178Z,96668.44
2023-07-27T09:43:28.973Z,96666.56
2023-07-27T09:46:00.777Z,96657.97
2023-07-27T09:48:31.166Z,96658.03
2023-07-27T09:51:08.035Z,96660.00
2023-07-27T09:53:41.663Z,96652.63
2023-07-27T09:56:09.001Z,96650.03
2023-07-27T09:58:37.787Z,96646.72
2023-07-27T10:01:07.027Z,96648.25
2023-07-27T10:03:33.948Z,96641.28
2023-07-27T10:06:04.137Z,96632.56
2023-07-27T10:08:34.651Z,96634.84
2023-07-27T10:11:05.198Z,96635.84
2023-07-27T10:13:38.361Z,96637.28
2023-07-27T10:16:08.673Z,96629.03
2023-07-27T10:18:41.732Z,96643.97
2023-07-27T10:21:24.685Z,96643.00
2023-07-27T10:24:01.994Z,96647.66
2023-07-27T10:26:56.080Z,96645.47
2023-07-27T10:29:23.959Z,96639.97
2023-07-27T10:32:06.901Z,96636.69
2023-07-27T10:34:41.866Z,96643.06
2023-07-27T10:37:11.324Z,96633.28
2023-07-27T10:39:53.402Z,96620.69
2023-07-27T10:42:31.182Z,96621.50
2023-07-27T10:45:00.399Z,96627.31
2023-07-27T10:47:38.659Z,96619.09
2023-07-27T10:50:10.155Z,96627.22
2023-07-27T10:52:42.053Z,96625.59
2023-07-27T10:55:11.180Z,96614.31
2023-07-27T10:57:38.935Z,96620.16
2023-07-27T11:00:06.582Z,96611.66
2023-07-27T11:02:34.622Z,96622.22
2023-07-27T11:05:10.887Z,96618.19
2023-07-27T11:07:39.848Z,96613.16
2023-07-27T11:10:16.988Z,96616.94
2023-07-27T11:12:53.589Z,96615.69
2023-07-27T11:15:33.076Z,96608.41
2023-07-27T11:18:03.086Z,96604.63
2023-07-27T11:20:33.287Z,96604.38
2023-07-27T11:23:00.400Z,96600.88
2023-07-27T11:25:33.928Z,96601.09
2023-07-27T11:28:04.523Z,96591.56
2023-07-27T11:30:36.889Z,96589.94
2023-07-27T11:33:12.211Z,96581.31
2023-07-27T11:35:48.823Z,96578.03
2023-07-27T11:38:15.438Z,96573.16
2023-07-27T11:40:50.633Z,96569.34
2023-07-27T11:43:17.363Z,96565.03
2023-07-27T11:45:46.538Z,96559.50
2023-07-27T11:48:13.572Z,96550.38
2023-07-27T11:50:40.308Z,96545.34
2023-07-27T11:53:19.839Z,96544.16
2023-07-27T11:55:58.662Z,96535.88
2023-07-27T11:58:30.727Z,96541.69
2023-07-27T12:00:57.465Z,96536.31
2023-07-27T12:03:26.453Z,96530.19
2023-07-27T12:05:55.127Z,96526.53
2023-07-27T12:13:58.952Z,96525.72
2023-07-27T12:16:18.962Z,96524.94
2023-07-27T12:27:16.726Z,96500.78
2023-07-27T12:34:25.634Z,96478.44
2023-07-27T12:39:24.286Z,96482.97
2023-07-27T12:44:25.555Z,96481.41
2023-07-27T12:46:56.671Z,96475.41
2023-07-27T12:49:28.064Z,96478.69
2023-07-27T12:51:57.701Z,96478.00
2023-07-27T12:54:26.548Z,96475.72
2023-07-27T12:56:53.175Z,96468.59
2023-07-27T12:59:19.826Z,96473.06
2023-07-27T13:01:46.378Z,96473.25
2023-07-27T13:04:13.025Z,96464.25
2023-07-27T13:06:41.871Z,96458.94
2023-07-27T13:09:09.035Z,96462.16
2023-07-27T13:11:38.486Z,96460.38
2023-07-27T13:14:05.110Z,96456.13
2023-07-27T13:16:35.210Z,96452.78
2023-07-27T13:19:02.313Z,96449.78
2023-07-27T13:21:29.002Z,96443.22
2023-07-27T13:23:55.834Z,96437.41
2023-07-27T13:26:29.752Z,96437.53
2023-07-27T13:28:58.803Z,96435.09
2023-07-27T13:31:28.427Z,96431.69
2023-07-27T13:33:58.288Z,96428.97
2023-07-27T13:36:31.761Z,96429.34
2023-07-27T13:39:04.248Z,96437.53
2023-07-27T13:41:30.867Z,96434.34
2023-07-27T13:43:57.678Z,96421.84
2023-07-27T13:46:29.128Z,96412.91
2023-07-27T13:48:55.755Z,96417.97
2023-07-27T13:51:27.174Z,96415.66
2023-07-27T13:53:56.443Z,96417.41
2023-07-27T13:56:25.271Z,96411.84
2023-07-27T13:58:51.829Z,96414.78
2023-07-27T14:01:20.926Z,96409.69
2023-07-27T14:03:50.626Z,96406.66
2023-07-27T14:06:17.312Z,96407.00
2023-07-27T14:08:43.908Z,96406.78
2023-07-27T14:11:15.209Z,96404.50
2023-07-27T14:13:44.815Z,96403.56
2023-07-27T14:16:13.726Z,96396.09
2023-07-27T14:18:44.777Z,96400.34
2023-07-27T14:21:13.504Z,96405.22
2023-07-27T14:23:42.421Z,96405.56
2023-07-27T14:26:12.864Z,96401.84
2023-07-27T14:28:41.746Z,96396.03
2023-07-27T14:31:13.501Z,96398.44
2023-07-27T14:33:40.956Z,96400.69
2023-07-27T14:36:07.700Z,96402.66
2023-07-27T14:38:34.401Z,96398.94
2023-07-27T14:41:03.409Z,96394.22
2023-07-27T14:43:32.379Z,96389.94
2023-07-27T14:46:01.296Z,96380.22
2023-07-27T14:48:27.936Z,96382.06
2023-07-27T14:50:54.558Z,96378.38
2023-07-27T14:53:25.339Z,96390.06
2023-07-27T14:55:52.108Z,96387.44
2023-07-27T14:58:20.883Z,96389.72
2023-07-27T15:03:22.871Z,96383.47
2023-07-27T15:05:53.593Z,96382.28
2023-07-27T15:08:22.732Z,96379.22
2023-07-27T15:13:36.010Z,96374.91
2023-07-27T15:16:02.639Z,96366.59
2023-07-27T15:18:29.369Z,96366.22
2023-07-27T15:20:59.500Z,96361.34
2023-07-27T15:23:28.592Z,96357.19
2023-07-27T15:25:56.498Z,96352.25
2023-07-27T15:28:25.405Z,96354.69
2023-07-27T15:30:52.482Z,96348.97
2023-07-27T15:33:19.944Z,96344.72
2023-07-27T15:35:48.985Z,96343.09
2023-07-27T15:38:18.276Z,96339.47
2023-07-27T15:40:50.675Z,96345.16
2023-07-27T15:43:20.290Z,96352.22
2023-07-27T15:45:50.148Z,96342.69
2023-07-27T15:48:20.439Z,96346.72
2023-07-27T15:50:49.469Z,96343.44
2023-07-27T15:53:16.444Z,96331.59
2023-07-27T15:55:43.500Z,96334.91
2023-07-27T15:58:13.076Z,96326.97
2023-07-27T16:00:40.490Z,96324.97
2023-07-27T16:03:09.519Z,96324.28
2023-07-27T16:05:37.332Z,96313.19
2023-07-27T16:08:07.156Z,96306.13
2023-07-27T16:10:35.997Z,96316.94
2023-07-27T16:13:02.569Z,96310.84
2023-07-27T16:15:29.804Z,96306.88
2023-07-27T16:17:58.953Z,96302.75
2023-07-27T16:20:25.635Z,96302.38
2023-07-27T16:22:55.062Z,96297.94
2023-07-27T16:25:22.907Z,96294.78
2023-07-27T16:27:49.595Z,96293.28
2023-07-27T16:30:16.350Z,96295.13
2023-07-27T16:32:47.802Z,96290.88
2023-07-27T16:35:15.857Z,96297.03
2023-07-27T16:37:44.926Z,96294.25
2023-07-27T16:40:12.244Z,96292.53
2023-07-27T16:42:39.056Z,96285.50
2023-07-27T16:45:06.275Z,96286.69
2023-07-27T16:47:35.329Z,96296.88
2023-07-27T16:50:01.900Z,96293.75
2023-07-27T16:52:30.529Z,96285.31
2023-07-27T16:54:57.114Z,96295.34
2023-07-27T16:57:23.712Z,96290.97
2023-07-27T16:59:52.686Z,96288.19
2023-07-27T17:02:24.018Z,96284.16
2023-07-27T17:04:53.242Z,96279.31
2023-07-27T17:07:22.346Z,96279.31
2023-07-27T17:09:51.411Z,96287.66
2023-07-27T17:12:18.146Z,96280.44
2023-07-27T17:14:44.806Z,96283.41
2023-07-27T17:17:11.431Z,96276.88
2023-07-27T17:19:40.487Z,96282.31
2023-07-27T17:22:07.342Z,96284.97
2023-07-27T17:24:34.081Z,96283.06
2023-07-27T17:27:00.735Z,96287.34
2023-07-27T17:29:27.816Z,96279.19
2023-07-27T17:32:01.814Z,96276.75
2023-07-27T17:34:32.584Z,96273.69
2023-07-27T17:36:59.633Z,96275.69
2023-07-27T17:39:26.393Z,96271.50
2023-07-27T17:41:52.968Z,96273.34
2023-07-27T17:44:19.549Z,96281.78
2023-07-27T17:46:46.211Z,96277.50
2023-07-27T17:49:14.249Z,96287.09
2023-07-27T17:51:43.053Z,96291.56
2023-07-27T17:54:13.920Z,96284.75
2023-07-27T17:56:41.726Z,96287.91
2023-07-27T17:59:08.370Z,96291.50
2023-07-27T18:01:39.269Z,96287.75
2023-07-27T18:04:05.894Z,96296.63
2023-07-27T18:06:35.788Z,96286.34
2023-07-27T18:09:03.507Z,96296.78
2023-07-27T18:11:32.711Z,96296.81
2023-07-27T18:13:59.508Z,96293.81
2023-07-27T18:16:26.104Z,96303.03
2023-07-27T18:18:52.713Z,96300.09
2023-07-27T18:21:19.579Z,96294.91
2023-07-27T18:23:47.954Z,96304.31
2023-07-27T18:26:25.536Z,96303.38
2023-07-27T18:28:52.117Z,96310.16
2023-07-27T18:31:22.194Z,96299.63
2023-07-27T18:33:51.611Z,96312.78
2023-07-27T18:36:19.285Z,96315.09
2023-07-27T18:38:48.844Z,96318.59
2023-07-27T18:41:17.448Z,96311.41
2023-07-27T18:43:44.501Z,96325.47
2023-07-27T18:46:16.101Z,96329.50
2023-07-27T18:48:46.091Z,96321.75
2023-07-27T18:51:12.634Z,96318.75
2023-07-27T18:53:44.021Z,96322.25
2023-07-27T18:56:15.573Z,96320.78
2023-07-27T18:58:46.910Z,96322.28
2023-07-27T19:01:16.012Z,96319.03
2023-07-27T19:03:43.119Z,96331.31
2023-07-27T19:06:12.289Z,96332.59
2023-07-27T19:08:41.242Z,96336.59
2023-07-27T19:11:12.536Z,96334.06
2023-07-27T19:13:39.303Z,96341.31
2023-07-27T19:16:06.527Z,96340.09
2023-07-27T19:18:38.642Z,96335.34
2023-07-27T19:21:07.492Z,96339.59
2023-07-27T19:23:37.312Z,96344.84
2023-07-27T19:26:03.967Z,96346.09
2023-07-27T19:28:30.913Z,96350.34
2023-07-27T19:30:57.658Z,96361.84
2023-07-27T19:33:24.314Z,96361.59
2023-07-27T19:35:50.948Z,96356.84
2023-07-27T19:38:17.903Z,96358.84
2023-07-27T19:40:47.112Z,96362.56
2023-07-27T19:43:15.896Z,96366.34
2023-07-27T19:45:42.820Z,96368.56
2023-07-27T19:48:15.604Z,96371.56
2023-07-27T19:50:42.314Z,96366.53
2023-07-27T19:53:11.098Z,96368.28
2023-07-27T19:55:39.899Z,96378.50
2023-07-27T19:58:08.768Z,96373.25
2023-07-27T20:00:37.879Z,96381.03
2023-07-27T20:03:04.612Z,96380.16
2023-07-27T20:05:36.679Z,96378.56
2023-07-27T20:08:05.590Z,96382.78
2023-07-27T20:10:32.232Z,96379.06
2023-07-27T20:12:58.952Z,96382.78
2023-07-27T20:15:27.766Z,96383.75
2023-07-27T20:17:54.409Z,96387.47
2023-07-27T20:20:23.511Z,96392.13
2023-07-27T20:22:52.414Z,96388.41
2023-07-27T20:25:19.067Z,96395.28
2023-07-27T20:27:50.213Z,96391.75
2023-07-27T20:30:19.178Z,96388.16
2023-07-27T20:32:49.261Z,96389.56
2023-07-27T20:35:15.990Z,96387.56
2023-07-27T20:37:42.989Z,96389.56
2023-07-27T20:40:12.476Z,96390.81
2023-07-27T20:42:39.131Z,96399.81
2023-07-27T20:45:07.820Z,96396.09
2023-07-27T20:47:37.158Z,96398.09
2023-07-27T20:50:04.457Z,96399.81
2023-07-27T20:52:31.115Z,96388.34
2023-07-27T20:55:02.377Z,96397.84
2023-07-27T20:57:30.425Z,96396.53
2023-07-27T21:00:00.079Z,96411.44
2023-07-27T21:02:26.639Z,96403.28
2023-07-27T21:04:53.345Z,96401.69
2023-07-27T21:07:26.897Z,96390.97
2023-07-27T21:09:57.158Z,96397.75
2023-07-27T21:12:28.969Z,96394.31
2023-07-27T21:14:58.497Z,96389.03
2023-07-27T21:17:29.585Z,96387.09
2023-07-27T21:19:58.695Z,96383.13
2023-07-27T21:22:25.417Z,96384.50
2023-07-27T21:24:52.000Z,96377.72
2023-07-27T21:27:20.957Z,96396.88
2023-07-27T21:29:50.044Z,96382.16
2023-07-27T21:32:16.742Z,96392.31
2023-07-27T21:34:45.688Z,96389.75
2023-07-27T21:37:14.562Z,96392.66
2023-07-27T21:39:41.184Z,96398.91
2023-07-27T21:42:07.910Z,96389.63
2023-07-27T21:44:39.322Z,96394.06
2023-07-27T21:47:06.308Z,96383.31
2023-07-27T21:49:32.879Z,96380.97
2023-07-27T21:52:01.758Z,96384.38
2023-07-27T21:54:34.454Z,96383.31
2023-07-27T21:57:06.071Z,96380.03
2023-07-27T21:59:35.458Z,96376.81
2023-07-27T22:02:02.153Z,96375.53
2023-07-27T22:04:30.930Z,96382.53
2023-07-27T22:06:58.054Z,96376.63
2023-07-27T22:09:27.157Z,96376.34
2023-07-27T22:11:53.940Z,96373.13
2023-07-27T22:14:20.557Z,96384.38
2023-07-27T22:16:47.174Z,96375.66
2023-07-27T22:19:16.283Z,96378.47
2023-07-27T22:21:47.600Z,96376.97
2023-07-27T22:24:14.317Z,96375.38
2023-07-27T22:26:43.110Z,96380.91
2023-07-27T22:29:09.861Z,96379.47
2023-07-27T22:31:36.550Z,96381.59
2023-07-27T22:34:03.689Z,96392.19
2023-07-27T22:36:30.326Z,96388.06
2023-07-27T22:38:56.988Z,96393.47
2023-07-27T22:41:26.505Z,96384.47
2023-07-27T22:43:53.121Z,96384.25
2023-07-27T22:46:19.809Z,96379.25
2023-07-27T22:48:50.879Z,96388.63
2023-07-27T22:51:17.592Z,96384.31
2023-07-27T22:53:44.248Z,96378.31
2023-07-27T22:56:10.932Z,96379.56
2023-07-27T22:58:37.550Z,96377.84
2023-07-27T23:01:11.201Z,96364.81
2023-07-27T23:03:38.360Z,96377.97
2023-07-27T23:06:05.660Z,96375.91
2023-07-27T23:08:35.610Z,96371.00
2023-07-27T23:11:05.176Z,96363.97
2023-07-27T23:13:32.500Z,96359.34
2023-07-27T23:16:02.110Z,96361.22
2023-07-27T23:18:28.816Z,96355.22
2023-07-27T23:20:57.751Z,96349.75
2023-07-27T23:23:24.380Z,96353.91
2023-07-27T23:25:51.083Z,96351.81
2023-07-27T23:28:17.695Z,96352.00
2023-07-27T23:30:44.352Z,96347.56
2023-07-27T23:33:10.969Z,96341.34
2023-07-27T23:35:37.635Z,96334.63
2023-07-27T23:38:04.465Z,96350.59
2023-07-27T23:40:31.075Z,96345.69
2023-07-27T23:43:00.123Z,96337.66
2023-07-27T23:45:29.044Z,96332.66
2023-07-27T23:47:55.662Z,96324.16
2023-07-27T23:50:24.639Z,96328.69
2023-07-27T23:52:51.333Z,96324.31
2023-07-27T23:55:18.037Z,96312.25
2023-07-27T23:57:45.047Z,96320.47
